createdAt,value
2022-08-27T00:04:03.058Z,24.16
2022-08-27T00:09:05.823Z,24.08
2022-08-27T00:14:08.102Z,24.06
2022-08-27T00:19:10.949Z,24.05
2022-08-27T00:24:13.078Z,23.98
2022-08-27T00:29:14.947Z,24.04
2022-08-27T00:34:16.830Z,24.16
2022-08-27T00:39:19.252Z,24.22
2022-08-27T00:44:21.429Z,24.20
2022-08-27T00:49:32.440Z,24.20
2022-08-27T00:54:34.825Z,24.19
2022-08-27T00:59:36.898Z,24.16
2022-08-27T01:04:41.531Z,24.13
2022-08-27T01:09:45.844Z,24.15
2022-08-27T01:14:48.121Z,24.07
2022-08-27T01:19:52.428Z,24.04
2022-08-27T01:24:58.438Z,23.94
2022-08-27T01:30:01.091Z,23.93
2022-08-27T01:35:06.629Z,23.94
2022-08-27T01:40:09.501Z,23.90
2022-08-27T01:45:30.297Z,23.84
2022-08-27T01:50:36.083Z,23.86
2022-08-27T01:55:39.064Z,23.91
2022-08-27T02:00:46.422Z,23.92
2022-08-27T02:05:48.713Z,23.88
2022-08-27T02:10:51.045Z,23.73
2022-08-27T02:15:53.557Z,23.66
2022-08-27T02:20:55.461Z,23.49
2022-08-27T02:25:57.364Z,23.43
2022-08-27T02:30:59.289Z,23.59
2022-08-27T02:36:01.367Z,23.68
2022-08-27T02:41:04.376Z,23.71
2022-08-27T02:46:06.476Z,23.67
2022-08-27T02:51:08.982Z,23.71
2022-08-27T02:56:10.988Z,23.75
2022-08-27T03:01:13.873Z,23.70
2022-08-27T03:06:15.961Z,23.67
2022-08-27T03:11:17.892Z,23.55
2022-08-27T03:16:19.896Z,23.45
2022-08-27T03:21:24.879Z,23.45
2022-08-27T03:26:27.223Z,23.44
2022-08-27T03:31:29.405Z,23.28
2022-08-27T03:36:31.765Z,23.17
2022-08-27T03:41:40.025Z,23.21
2022-08-27T03:46:55.577Z,23.37
2022-08-27T03:51:57.566Z,23.50
2022-08-27T03:56:59.426Z,23.53
2022-08-27T04:02:01.916Z,23.62
2022-08-27T04:07:04.217Z,23.72
2022-08-27T04:12:06.259Z,23.76
2022-08-27T04:17:08.178Z,23.77
2022-08-27T04:22:10.052Z,23.74
2022-08-27T04:27:14.511Z,23.59
2022-08-27T04:32:16.399Z,23.64
2022-08-27T04:37:21.477Z,23.64
2022-08-27T04:42:25.355Z,23.59
2022-08-27T04:47:27.505Z,23.63
2022-08-27T04:52:29.672Z,23.67
2022-08-27T04:57:31.534Z,23.69
2022-08-27T05:02:33.401Z,23.67
2022-08-27T05:07:35.267Z,23.53
2022-08-27T05:12:37.190Z,23.45
2022-08-27T05:17:39.064Z,23.41
2022-08-27T05:22:40.928Z,23.34
2022-08-27T05:27:42.965Z,23.32
2022-08-27T05:32:44.981Z,23.26
2022-08-27T05:37:46.974Z,23.19
2022-08-27T05:42:50.181Z,23.14
2022-08-27T05:47:53.203Z,23.16
2022-08-27T05:52:55.145Z,23.10
2022-08-27T05:57:57.062Z,23.05
2022-08-27T06:02:59.032Z,23.01
2022-08-27T06:08:00.985Z,22.96
2022-08-27T06:13:04.048Z,22.98
2022-08-27T06:18:06.424Z,23.01
2022-08-27T06:23:08.460Z,22.97
2022-08-27T06:28:10.719Z,22.90
2022-08-27T06:33:12.923Z,22.85
2022-08-27T06:38:14.961Z,22.82
2022-08-27T06:43:16.970Z,22.88
2022-08-27T06:48:19.340Z,22.88
2022-08-27T06:53:24.513Z,22.82
2022-08-27T06:58:26.769Z,22.76
2022-08-27T07:03:28.740Z,22.69
2022-08-27T07:08:30.651Z,22.72
2022-08-27T07:13:32.547Z,22.76
2022-08-27T07:18:34.746Z,22.81
2022-08-27T07:23:38.714Z,22.82
2022-08-27T07:28:42.614Z,22.77
2022-08-27T07:33:52.181Z,22.72
2022-08-27T07:39:01.091Z,22.83
2022-08-27T07:44:26.050Z,22.97
2022-08-27T07:49:31.611Z,23.02
2022-08-27T07:54:33.501Z,22.88
2022-08-27T07:59:35.349Z,22.83
2022-08-27T08:04:37.255Z,22.90
2022-08-27T08:09:39.161Z,22.81
2022-08-27T08:14:41.204Z,22.81
2022-08-27T08:19:53.483Z,22.72
2022-08-27T08:25:05.692Z,22.81
2022-08-27T08:30:09.069Z,22.92
2022-08-27T08:35:11.387Z,22.90
2022-08-27T08:40:43.257Z,22.80
2022-08-27T08:45:46.129Z,22.75
2022-08-27T08:51:26.381Z,22.70
2022-08-27T08:57:06.890Z,22.77
2022-08-27T09:02:13.593Z,22.86
2022-08-27T09:07:35.018Z,22.95
2022-08-27T09:12:38.687Z,22.93
2022-08-27T09:17:42.218Z,23.05
2022-08-27T09:23:02.191Z,23.03
2022-08-27T09:28:47.608Z,23.10
2022-08-27T09:33:56.831Z,23.16
2022-08-27T09:39:04.203Z,23.24
2022-08-27T09:44:12.263Z,23.28
2022-08-27T09:49:16.416Z,23.27
2022-08-27T09:54:48.379Z,23.39
2022-08-27T09:59:54.409Z,23.42
2022-08-27T10:05:02.153Z,23.38
2022-08-27T10:10:21.668Z,23.30
2022-08-27T10:15:27.340Z,23.30
2022-08-27T10:21:05.957Z,23.41
2022-08-27T10:26:17.419Z,23.41
2022-08-27T10:31:32.913Z,23.44
2022-08-27T10:36:47.209Z,23.43
2022-08-27T10:42:06.117Z,23.37
2022-08-27T10:47:23.688Z,23.36
2022-08-27T10:52:51.532Z,23.43
2022-08-27T10:58:10.793Z,23.55
2022-08-27T11:03:22.464Z,23.62
2022-08-27T11:08:35.178Z,23.67
2022-08-27T11:13:41.495Z,23.66
2022-08-27T11:19:10.508Z,23.75
2022-08-27T11:24:35.864Z,23.87
2022-08-27T11:29:52.217Z,23.85
2022-08-27T11:35:09.668Z,23.79
2022-08-27T11:40:27.460Z,23.69
2022-08-27T11:45:38.775Z,23.67
2022-08-27T11:50:40.958Z,23.84
2022-08-27T11:55:43.170Z,23.87
2022-08-27T12:00:47.219Z,23.90
2022-08-27T12:05:55.171Z,23.79
2022-08-27T12:11:25.180Z,23.86
2022-08-27T12:16:57.310Z,23.92
2022-08-27T12:22:26.251Z,24.09
2022-08-27T12:27:38.418Z,24.21
2022-08-27T12:32:45.052Z,24.22
2022-08-27T12:37:57.831Z,24.30
2022-08-27T12:43:11.452Z,24.25
2022-08-27T12:48:14.797Z,24.21
2022-08-27T12:53:32.456Z,24.16
2022-08-27T12:58:48.677Z,24.13
2022-08-27T13:03:54.427Z,24.16
2022-08-27T13:08:59.624Z,24.25
2022-08-27T13:14:11.541Z,24.37
2022-08-27T13:19:22.975Z,24.38
2022-08-27T13:24:34.496Z,24.29
2022-08-27T13:29:39.243Z,24.06
2022-08-27T13:34:41.970Z,23.95
2022-08-27T13:39:44.181Z,23.92
2022-08-27T13:44:48.417Z,23.96
2022-08-27T13:49:52.017Z,24.00
2022-08-27T13:55:08.247Z,23.97
2022-08-27T14:00:23.590Z,24.03
2022-08-27T14:05:25.700Z,23.98
2022-08-27T14:10:41.066Z,24.06
2022-08-27T14:15:47.176Z,24.09
2022-08-27T14:20:49.437Z,24.18
2022-08-27T14:25:53.438Z,24.15
2022-08-27T14:30:55.393Z,24.15
2022-08-27T14:35:57.617Z,24.08
2022-08-27T14:41:00.209Z,24.08
2022-08-27T14:46:03.182Z,24.12
2022-08-27T14:51:12.543Z,24.20
2022-08-27T14:56:14.557Z,24.19
2022-08-27T15:01:18.585Z,24.23
2022-08-27T15:06:26.481Z,24.23
2022-08-27T15:11:34.159Z,24.19
2022-08-27T15:16:40.908Z,24.15
2022-08-27T15:21:47.390Z,23.94
2022-08-27T15:26:50.587Z,23.90
2022-08-27T15:31:53.131Z,23.95
2022-08-27T15:36:56.581Z,23.91
2022-08-27T15:42:06.955Z,23.85
2022-08-27T15:47:09.143Z,23.80
2022-08-27T15:52:16.068Z,23.80
2022-08-27T15:57:20.516Z,23.76
2022-08-27T16:02:24.363Z,23.72
2022-08-27T16:07:26.785Z,23.75
2022-08-27T16:12:29.045Z,23.84
2022-08-27T16:17:31.034Z,23.76
2022-08-27T16:22:34.914Z,23.80
2022-08-27T16:27:37.640Z,23.76
2022-08-27T16:32:40.531Z,23.79
2022-08-27T16:37:44.278Z,23.76
2022-08-27T16:42:50.461Z,23.78
2022-08-27T16:48:11.288Z,23.74
2022-08-27T16:53:15.732Z,23.77
2022-08-27T16:58:29.731Z,23.84
2022-08-27T17:03:37.755Z,23.90
2022-08-27T17:08:55.108Z,23.88
2022-08-27T17:14:00.301Z,23.77
2022-08-27T17:19:05.730Z,23.66
2022-08-27T17:24:12.417Z,23.62
2022-08-27T17:29:14.738Z,23.59
2022-08-27T17:34:21.984Z,23.53
2022-08-27T17:39:23.975Z,23.33
2022-08-27T17:44:36.087Z,23.28
2022-08-27T17:49:38.083Z,23.24
2022-08-27T17:54:46.194Z,23.26
2022-08-27T17:59:49.336Z,23.33
2022-08-27T18:04:52.267Z,23.39
2022-08-27T18:09:55.723Z,23.41
2022-08-27T18:15:15.327Z,23.46
2022-08-27T18:20:18.495Z,23.32
2022-08-27T18:25:24.806Z,23.21
2022-08-27T18:30:27.551Z,23.05
2022-08-27T18:35:32.194Z,22.97
2022-08-27T18:40:42.297Z,22.94
2022-08-27T18:45:44.716Z,22.90
2022-08-27T18:50:50.082Z,22.80
2022-08-27T18:55:53.259Z,22.75
2022-08-27T19:00:58.670Z,22.69
2022-08-27T19:06:01.716Z,22.64
2022-08-27T19:11:11.811Z,22.67
2022-08-27T19:16:22.194Z,22.75
2022-08-27T19:21:24.701Z,22.81
2022-08-27T19:26:26.700Z,22.69
2022-08-27T19:31:29.429Z,22.54
2022-08-27T19:36:34.698Z,22.63
2022-08-27T19:41:37.087Z,22.72
2022-08-27T19:46:39.676Z,22.63
2022-08-27T19:51:41.782Z,22.60
2022-08-27T19:56:44.957Z,22.59
2022-08-27T20:01:47.100Z,22.56
2022-08-27T20:06:49.018Z,22.48
2022-08-27T20:11:50.999Z,22.45
2022-08-27T20:16:53.131Z,22.47
2022-08-27T20:21:55.224Z,22.52
2022-08-27T20:26:58.148Z,22.62
2022-08-27T20:32:01.213Z,22.64
2022-08-27T20:37:04.338Z,22.66
2022-08-27T20:42:07.641Z,22.69
2022-08-27T20:47:11.109Z,22.66
2022-08-27T20:52:15.079Z,22.63
2022-08-27T20:57:17.104Z,22.56
2022-08-27T21:02:28.952Z,22.51
2022-08-27T21:07:30.881Z,22.46
2022-08-27T21:12:33.145Z,22.53
2022-08-27T21:17:35.493Z,22.56
2022-08-27T21:22:38.479Z,22.58
2022-08-27T21:27:41.173Z,22.50
2022-08-27T21:32:43.103Z,22.54
2022-08-27T21:37:44.946Z,22.49
2022-08-27T21:42:48.081Z,22.35
2022-08-27T21:47:51.933Z,22.27
2022-08-27T21:52:54.174Z,22.20
2022-08-27T21:57:56.063Z,22.10
2022-08-27T22:02:58.436Z,21.99
2022-08-27T22:08:00.483Z,21.92
2022-08-27T22:13:02.558Z,21.78
2022-08-27T22:18:05.995Z,21.75
2022-08-27T22:23:10.150Z,21.75
2022-08-27T22:28:13.395Z,21.81
2022-08-27T22:33:16.318Z,21.76
2022-08-27T22:38:18.251Z,21.72
2022-08-27T22:43:20.138Z,21.58
2022-08-27T22:48:22.068Z,21.48
2022-08-27T22:53:24.093Z,21.49
2022-08-27T22:58:26.336Z,21.51
2022-08-27T23:03:28.889Z,21.49
2022-08-27T23:08:31.985Z,21.47
2022-08-27T23:13:34.253Z,21.48
2022-08-27T23:18:36.841Z,21.55
2022-08-27T23:23:38.923Z,21.55
2022-08-27T23:28:41.001Z,21.59
2022-08-27T23:33:43.205Z,21.61
2022-08-27T23:38:46.080Z,21.50
2022-08-27T23:43:48.017Z,21.56
2022-08-27T23:48:49.882Z,21.66
2022-08-27T23:53:51.749Z,21.65
2022-08-27T23:58:53.726Z,21.68
